Austin, TX (78713)

5:47 PM CST on February 12, 2016 (GMT -0600)
West End | | Change Station
CLOSE
Current Station
Personal Weather Station
Location: Austin, TX
Elevation: 564 ft
Nearby Weather Stations

Elev 564 ft 30.28 °N, 97.75 °W | Updated 24 seconds ago

Clear
Clear
76.5 °F
Feels Like 77 °F
N
4.0
Wind Variable Wind from ESE
Gusts 4.9 mph

Today
High -- | Low -- °F
--% Chance of Precip.
Yesterday
High -- | Low -- °F
Precip. -- in
Pressure 30.19 in
Visibility 10.0 miles
Clouds Clear
Heat Index 77 °F
Dew Point 42 °F
Humidity 29%
Rainfall 0.00 in
Snow Depth Not available.
7:14 AM 6:16 PM
Waxing Crescent, 24% visible
METAR KATT 122251Z AUTO VRB03KT 10SM CLR 25/05 A3020 RMK AO2 SLP222 T02500050
Pressure 30.19 in
Visibility 10.0 miles
Clouds Clear
Heat Index 77 °F
Dew Point 42 °F
Humidity 29%
Rainfall 0.00 in
Snow Depth Not available.
7:14 AM 6:16 PM
Waxing Crescent, 24% visible
METAR KATT 122251Z AUTO VRB03KT 10SM CLR 25/05 A3020 RMK AO2 SLP222 T02500050

10-Day Weather Forecast

Almanac

Astronomy

Feb. 12, 2016 Rise Set
Actual Time
Civil Twilight
Nautical Twilight
Astronomical Twilight
Moon
Length of Visible Light
Length of Day
Tomorrow will be .
, % of the Moon is Illuminated

Today's Extremes

State Highs State Lows

Community

WunderPhotos

Upload Photos

1,892,437 photos uploaded!

WunderBlog® & News

Nearby

Air Quality

  Air Quality AQ Index Pollutant
Not available.

Snow Depth

Station Depth Elevation

Earthquake Activity

City Distance Mag. Time & Date
Minimum magnitude displayed is 2.5.

Coastal Water Temperatures

Place Temperature

Stations

Nearby Weather Stations

Station Location Temp. Windchill Dew Point Humidity Wind Precip. Elev Updated Type
                   

Watches & Warnings

There are currently no watches in effect.